createdAt,value
2023-01-13T00:01:35.618Z,7.12
2023-01-13T00:04:05.750Z,7.13
2023-01-13T00:06:35.481Z,7.15
2023-01-13T00:09:07.102Z,7.12
2023-01-13T00:11:36.749Z,7.14
2023-01-13T00:14:06.720Z,7.07
2023-01-13T00:16:36.396Z,7.13
2023-01-13T00:19:06.423Z,7.19
2023-01-13T00:21:36.080Z,7.23
2023-01-13T00:24:07.970Z,7.23
2023-01-13T00:26:37.579Z,7.23
2023-01-13T00:29:07.719Z,7.21
2023-01-13T00:31:37.429Z,7.23
2023-01-13T00:34:07.450Z,7.21
2023-01-13T00:36:37.082Z,7.17
2023-01-13T00:39:08.429Z,7.19
2023-01-13T00:41:51.741Z,7.17
2023-01-13T00:44:22.042Z,7.17
2023-01-13T00:46:51.927Z,7.15
2023-01-13T00:49:22.660Z,7.17
2023-01-13T00:51:52.401Z,7.16
2023-01-13T00:54:23.898Z,7.15
2023-01-13T00:56:53.589Z,7.15
2023-01-13T00:59:23.681Z,7.12
2023-01-13T01:01:53.518Z,7.03
2023-01-13T01:04:23.581Z,7.05
2023-01-13T01:06:53.300Z,7.11
2023-01-13T01:09:24.821Z,7.09
2023-01-13T01:11:54.503Z,7.07
2023-01-13T01:14:24.449Z,7.09
2023-01-13T01:16:54.382Z,7.13
2023-01-13T01:19:24.428Z,7.16
2023-01-13T01:21:55.278Z,7.18
2023-01-13T01:24:26.686Z,7.17
2023-01-13T01:26:56.401Z,7.18
2023-01-13T01:29:26.345Z,7.19
2023-01-13T01:31:56.123Z,7.19
2023-01-13T01:34:26.204Z,7.19
2023-01-13T01:36:55.917Z,7.21
2023-01-13T01:39:27.500Z,7.24
2023-01-13T01:42:14.491Z,7.25
2023-01-13T01:44:54.087Z,7.17
2023-01-13T01:47:25.381Z,7.16
2023-01-13T01:49:56.711Z,7.23
2023-01-13T01:52:28.243Z,7.21
2023-01-13T01:55:01.659Z,7.25
2023-01-13T01:57:34.481Z,7.26
2023-01-13T02:00:05.970Z,7.24
2023-01-13T02:02:41.700Z,7.22
2023-01-13T02:05:12.283Z,7.20
2023-01-13T02:07:43.256Z,7.18
2023-01-13T02:10:15.928Z,7.17
2023-01-13T02:12:46.659Z,7.15
2023-01-13T02:15:17.848Z,7.15
2023-01-13T02:17:56.451Z,7.12
2023-01-13T02:20:37.138Z,7.09
2023-01-13T02:23:42.862Z,7.05
2023-01-13T02:26:30.713Z,7.02
2023-01-13T02:29:32.494Z,6.99
2023-01-13T02:32:06.430Z,7.00
2023-01-13T02:34:40.354Z,6.98
2023-01-13T02:37:15.681Z,6.97
2023-01-13T02:39:50.742Z,6.94
2023-01-13T02:42:42.080Z,6.93
2023-01-13T02:45:14.460Z,6.93
2023-01-13T02:47:48.170Z,6.94
2023-01-13T02:50:19.482Z,6.94
2023-01-13T02:52:52.436Z,6.95
2023-01-13T02:55:23.511Z,6.93
2023-01-13T02:57:54.662Z,6.94
2023-01-13T03:00:24.829Z,6.95
2023-01-13T03:02:56.565Z,6.94
2023-01-13T03:05:26.941Z,6.92
2023-01-13T03:08:02.695Z,6.93
2023-01-13T03:10:48.971Z,6.93
2023-01-13T03:13:23.499Z,6.91
2023-01-13T03:15:56.521Z,6.94
2023-01-13T03:18:34.486Z,6.91
2023-01-13T03:21:08.190Z,6.90
2023-01-13T03:23:42.941Z,6.88
2023-01-13T03:26:15.195Z,6.90
2023-01-13T03:28:52.421Z,6.90
2023-01-13T03:31:25.924Z,6.90
2023-01-13T03:34:00.534Z,6.91
2023-01-13T03:36:31.539Z,6.90
2023-01-13T03:39:06.478Z,6.91
2023-01-13T03:41:38.349Z,6.91
2023-01-13T03:44:24.371Z,6.92
2023-01-13T03:47:21.262Z,6.93
2023-01-13T03:49:54.854Z,6.92
2023-01-13T03:52:26.870Z,6.92
2023-01-13T03:54:59.540Z,6.92
2023-01-13T03:57:32.764Z,6.94
2023-01-13T04:00:04.260Z,6.95
2023-01-13T04:02:49.210Z,6.94
2023-01-13T04:05:21.039Z,6.95
2023-01-13T04:07:54.565Z,6.95
2023-01-13T04:10:27.952Z,6.98
2023-01-13T04:13:05.489Z,6.97
2023-01-13T04:15:38.228Z,6.99
2023-01-13T04:18:13.578Z,6.98
2023-01-13T04:20:46.119Z,6.98
2023-01-13T04:23:15.742Z,6.99
2023-01-13T04:25:46.224Z,6.98
2023-01-13T04:28:16.352Z,6.94
2023-01-13T04:30:46.695Z,6.96
2023-01-13T04:33:17.400Z,6.94
2023-01-13T04:35:49.503Z,6.95
2023-01-13T04:38:20.937Z,6.97
2023-01-13T04:40:51.181Z,6.99
2023-01-13T04:43:20.962Z,6.98
2023-01-13T04:45:50.932Z,7.01
2023-01-13T04:48:20.874Z,7.03
2023-01-13T04:50:52.383Z,7.10
2023-01-13T04:53:22.157Z,7.10
2023-01-13T04:55:52.632Z,7.12
2023-01-13T04:58:23.382Z,7.11
2023-01-13T05:00:53.742Z,7.15
2023-01-13T05:03:24.732Z,7.16
2023-01-13T05:05:56.162Z,7.18
2023-01-13T05:08:26.060Z,7.17
2023-01-13T05:10:55.993Z,7.18
2023-01-13T05:13:42.771Z,7.17
2023-01-13T05:16:31.494Z,7.15
2023-01-13T05:19:01.251Z,7.17
2023-01-13T05:21:50.121Z,7.18
2023-01-13T05:24:33.460Z,7.19
2023-01-13T05:27:03.416Z,7.18
2023-01-13T05:29:33.031Z,7.24
2023-01-13T05:32:04.774Z,7.22
2023-01-13T05:34:34.343Z,7.25
2023-01-13T05:37:08.249Z,7.32
2023-01-13T05:39:51.532Z,7.33
2023-01-13T05:42:38.763Z,7.35
2023-01-13T05:45:08.823Z,7.39
2023-01-13T05:47:39.061Z,7.38
2023-01-13T05:50:11.195Z,7.38
2023-01-13T05:52:43.741Z,7.41
2023-01-13T05:55:13.495Z,7.43
2023-01-13T05:57:43.702Z,7.41
2023-01-13T06:00:13.889Z,7.38
2023-01-13T06:02:43.974Z,7.35
2023-01-13T06:05:13.636Z,7.35
2023-01-13T06:07:45.042Z,7.37
2023-01-13T06:10:14.692Z,7.39
2023-01-13T06:12:44.752Z,7.44
2023-01-13T06:15:14.310Z,7.44
2023-01-13T06:17:44.385Z,7.43
2023-01-13T06:20:15.021Z,7.42
2023-01-13T06:22:48.481Z,7.41
2023-01-13T06:25:23.282Z,7.40
2023-01-13T06:27:54.835Z,7.43
2023-01-13T06:30:24.651Z,7.42
2023-01-13T06:32:57.151Z,7.38
2023-01-13T06:35:29.905Z,7.39
2023-01-13T06:38:03.061Z,7.38
2023-01-13T06:40:33.345Z,7.39
2023-01-13T06:43:16.775Z,7.34
2023-01-13T06:45:49.526Z,7.36
2023-01-13T06:48:21.871Z,7.34
2023-01-13T06:50:51.510Z,7.35
2023-01-13T06:53:23.261Z,7.33
2023-01-13T06:55:53.892Z,7.34
2023-01-13T06:58:24.503Z,7.33
2023-01-13T07:00:54.413Z,7.35
2023-01-13T07:03:24.938Z,7.34
2023-01-13T07:05:55.969Z,7.39
2023-01-13T07:08:27.688Z,7.37
2023-01-13T07:10:57.234Z,7.38
2023-01-13T07:13:44.622Z,7.38
2023-01-13T07:16:14.303Z,7.35
2023-01-13T07:18:44.271Z,7.42
2023-01-13T07:21:19.068Z,7.39
2023-01-13T07:23:50.714Z,7.43
2023-01-13T07:26:20.384Z,7.40
2023-01-13T07:28:50.773Z,7.41
2023-01-13T07:31:22.524Z,7.40
2023-01-13T07:33:52.681Z,7.40
2023-01-13T07:36:22.685Z,7.40
2023-01-13T07:38:54.989Z,7.43
2023-01-13T07:41:42.975Z,7.45
2023-01-13T07:44:12.871Z,7.44
2023-01-13T07:46:42.584Z,7.46
2023-01-13T07:49:13.374Z,7.48
2023-01-13T07:51:43.152Z,7.49
2023-01-13T07:54:14.567Z,7.51
2023-01-13T07:56:44.294Z,7.52
2023-01-13T07:59:15.320Z,7.54
2023-01-13T08:01:45.156Z,7.53
2023-01-13T08:04:15.419Z,7.55
2023-01-13T08:06:45.206Z,7.57
2023-01-13T08:09:16.661Z,7.59
2023-01-13T08:12:06.564Z,7.62
2023-01-13T08:14:36.788Z,7.64
2023-01-13T08:17:06.518Z,7.66
2023-01-13T08:19:36.748Z,7.67
2023-01-13T08:22:09.207Z,7.71
2023-01-13T08:24:40.770Z,7.74
2023-01-13T08:27:10.554Z,7.74
2023-01-13T08:29:40.800Z,7.77
2023-01-13T08:32:10.861Z,7.80
2023-01-13T08:34:40.952Z,7.82
2023-01-13T08:37:10.995Z,7.82
2023-01-13T08:39:42.787Z,7.83
2023-01-13T08:42:12.409Z,7.83
2023-01-13T08:44:42.626Z,7.85
2023-01-13T08:47:12.309Z,7.86
2023-01-13T08:49:42.489Z,7.87
2023-01-13T08:52:12.227Z,7.88
2023-01-13T08:54:44.044Z,7.92
2023-01-13T08:57:15.486Z,7.91
2023-01-13T08:59:46.409Z,7.95
2023-01-13T09:02:17.773Z,7.97
2023-01-13T09:04:48.133Z,8.01
2023-01-13T09:07:18.746Z,8.05
2023-01-13T09:09:50.159Z,8.10
2023-01-13T09:12:37.109Z,8.11
2023-01-13T09:15:07.666Z,8.12
2023-01-13T09:17:37.356Z,8.11
2023-01-13T09:20:07.975Z,8.09
2023-01-13T09:22:37.904Z,8.09
2023-01-13T09:25:10.158Z,8.05
2023-01-13T09:27:40.373Z,8.04
2023-01-13T09:30:11.068Z,8.05
2023-01-13T09:32:40.919Z,8.07
2023-01-13T09:35:10.154Z,8.07
2023-01-13T09:37:40.998Z,8.07
2023-01-13T09:40:17.008Z,8.06
2023-01-13T09:43:05.489Z,8.07
2023-01-13T09:45:41.145Z,8.05
2023-01-13T09:48:14.822Z,8.05
2023-01-13T09:50:56.554Z,8.05
2023-01-13T09:53:28.573Z,8.03
2023-01-13T09:56:00.591Z,7.99
2023-01-13T09:58:30.522Z,8.03
2023-01-13T10:01:18.006Z,8.05
2023-01-13T10:03:49.417Z,8.01
2023-01-13T10:06:21.777Z,8.04
2023-01-13T10:08:52.252Z,8.08
2023-01-13T10:11:44.652Z,8.11
2023-01-13T10:14:17.511Z,8.17
2023-01-13T10:16:50.617Z,8.23
2023-01-13T10:19:23.422Z,8.31
2023-01-13T10:22:01.820Z,8.33
2023-01-13T10:24:37.612Z,8.34
2023-01-13T10:27:14.810Z,8.35
2023-01-13T10:29:45.175Z,8.38
2023-01-13T10:32:15.631Z,8.41
2023-01-13T10:34:52.788Z,8.47
2023-01-13T10:37:23.785Z,8.53
2023-01-13T10:39:55.793Z,8.64
2023-01-13T10:42:28.416Z,8.83
2023-01-13T10:44:59.475Z,8.93
2023-01-13T10:47:31.165Z,8.94
2023-01-13T10:50:22.926Z,8.95
2023-01-13T10:53:00.875Z,9.00
2023-01-13T10:55:35.244Z,9.00
2023-01-13T10:58:19.829Z,9.02
2023-01-13T11:00:51.468Z,9.16
2023-01-13T11:03:41.652Z,9.37
2023-01-13T11:06:21.525Z,9.43
2023-01-13T11:08:56.211Z,9.36
2023-01-13T11:11:43.819Z,9.31
2023-01-13T11:14:40.114Z,9.32
2023-01-13T11:17:28.870Z,9.25
2023-01-13T11:20:04.092Z,9.30
2023-01-13T11:22:35.562Z,9.37
2023-01-13T11:25:07.115Z,9.45
2023-01-13T11:27:41.756Z,9.44
2023-01-13T11:30:24.899Z,9.49
2023-01-13T11:33:13.783Z,9.42
2023-01-13T11:35:48.749Z,9.46
2023-01-13T11:38:24.264Z,9.49
2023-01-13T11:40:54.730Z,9.48
2023-01-13T11:43:31.737Z,9.51
2023-01-13T11:46:03.474Z,9.44
2023-01-13T11:48:34.848Z,9.53
2023-01-13T11:51:09.569Z,9.49
2023-01-13T11:53:45.973Z,9.48
2023-01-13T11:56:27.317Z,9.37
2023-01-13T11:59:08.620Z,9.40
2023-01-13T12:01:51.008Z,9.37
2023-01-13T12:04:25.556Z,9.39
2023-01-13T12:07:02.075Z,9.59
2023-01-13T12:09:55.383Z,9.73
2023-01-13T12:12:35.435Z,9.80
2023-01-13T12:15:29.880Z,9.65
2023-01-13T12:18:09.744Z,9.54
2023-01-13T12:20:45.858Z,9.47
2023-01-13T12:23:23.000Z,9.43
2023-01-13T12:25:54.672Z,9.39
2023-01-13T12:28:26.645Z,9.39
2023-01-13T12:30:59.562Z,9.34
2023-01-13T12:33:46.840Z,9.28
2023-01-13T12:36:22.895Z,9.27
2023-01-13T12:38:59.717Z,9.22
2023-01-13T12:42:11.741Z,9.21
2023-01-13T12:45:06.488Z,9.14
2023-01-13T12:47:38.279Z,9.04
2023-01-13T12:50:26.647Z,8.99
2023-01-13T12:52:58.708Z,9.00
2023-01-13T12:55:34.868Z,8.97
2023-01-13T12:58:16.638Z,8.87
2023-01-13T13:01:00.870Z,8.84
2023-01-13T13:03:31.956Z,8.82
2023-01-13T13:06:20.198Z,8.73
2023-01-13T13:09:15.418Z,8.71
2023-01-13T13:12:03.664Z,8.63
2023-01-13T13:14:51.763Z,8.59
2023-01-13T13:17:42.666Z,8.59
2023-01-13T13:20:30.484Z,8.55
2023-01-13T13:23:00.470Z,8.51
2023-01-13T13:25:31.738Z,8.50
2023-01-13T13:28:10.217Z,8.44
2023-01-13T13:30:45.231Z,8.38
2023-01-13T13:33:22.541Z,8.35
2023-01-13T13:36:03.124Z,8.30
2023-01-13T13:39:01.376Z,8.28
2023-01-13T13:41:50.119Z,7.92
2023-01-13T13:44:41.896Z,8.16
2023-01-13T13:47:12.039Z,8.11
2023-01-13T13:49:45.160Z,8.08
2023-01-13T13:52:21.844Z,8.05
2023-01-13T13:54:53.120Z,8.04
2023-01-13T13:57:29.593Z,8.01
2023-01-13T14:00:01.496Z,8.02
2023-01-13T14:02:41.496Z,8.00
2023-01-13T14:05:19.105Z,7.97
2023-01-13T14:07:58.158Z,7.95
2023-01-13T14:10:32.404Z,7.88
2023-01-13T14:13:14.584Z,7.85
2023-01-13T14:15:45.638Z,7.82
2023-01-13T14:18:17.587Z,7.84
2023-01-13T14:20:53.841Z,7.76
2023-01-13T14:23:28.197Z,7.40
2023-01-13T14:26:04.439Z,7.37
2023-01-13T14:28:37.616Z,7.42
2023-01-13T14:31:09.616Z,7.37
2023-01-13T14:33:41.760Z,7.31
2023-01-13T14:36:17.800Z,7.21
2023-01-13T14:38:48.093Z,7.16
2023-01-13T14:41:21.179Z,7.10
2023-01-13T14:43:54.499Z,7.02
2023-01-13T14:46:38.557Z,7.08
2023-01-13T14:49:18.224Z,6.96
2023-01-13T14:51:48.605Z,6.88
2023-01-13T14:54:39.262Z,6.83
2023-01-13T14:57:15.224Z,6.68
2023-01-13T14:59:52.062Z,6.64
2023-01-13T15:02:41.539Z,6.58
2023-01-13T15:05:37.050Z,6.57
2023-01-13T15:08:21.722Z,6.48
2023-01-13T15:10:54.736Z,6.45
2023-01-13T15:13:29.981Z,6.41
2023-01-13T15:16:19.826Z,6.45
2023-01-13T15:19:00.261Z,6.49
2023-01-13T15:21:30.345Z,6.46
2023-01-13T15:24:01.710Z,6.41
2023-01-13T15:26:31.649Z,6.39
2023-01-13T15:29:02.225Z,6.36
2023-01-13T15:31:33.744Z,6.33
2023-01-13T15:34:04.334Z,6.32
2023-01-13T15:36:37.077Z,6.30
2023-01-13T15:39:08.545Z,6.28
2023-01-13T15:41:55.178Z,6.29
2023-01-13T15:44:42.449Z,6.32
2023-01-13T15:47:14.715Z,6.32
2023-01-13T15:49:45.785Z,6.31
2023-01-13T15:52:19.803Z,6.32
2023-01-13T15:54:49.888Z,6.33
2023-01-13T15:57:22.771Z,6.32
2023-01-13T15:59:54.254Z,6.31
2023-01-13T16:02:25.900Z,6.34
2023-01-13T16:04:56.180Z,6.36
2023-01-13T16:07:26.807Z,6.50
2023-01-13T16:09:59.664Z,6.64
2023-01-13T16:12:31.151Z,6.72
2023-01-13T16:15:03.895Z,6.79
2023-01-13T16:17:35.213Z,6.65
2023-01-13T16:20:09.133Z,6.47
2023-01-13T16:22:40.288Z,6.41
2023-01-13T16:25:18.881Z,6.32
2023-01-13T16:27:49.448Z,6.30
2023-01-13T16:30:23.373Z,6.28
2023-01-13T16:32:55.357Z,6.28
2023-01-13T16:35:25.802Z,6.25
2023-01-13T16:38:04.538Z,6.20
2023-01-13T16:40:41.663Z,6.16
2023-01-13T16:43:14.004Z,6.15
2023-01-13T16:45:44.587Z,6.17
2023-01-13T16:48:18.955Z,6.19
2023-01-13T16:50:49.291Z,6.15
2023-01-13T16:53:19.088Z,6.10
2023-01-13T16:55:48.977Z,6.09
2023-01-13T16:58:19.883Z,6.11
2023-01-13T17:00:51.220Z,6.15
2023-01-13T17:03:25.266Z,6.15
2023-01-13T17:06:01.823Z,6.03
2023-01-13T17:08:33.076Z,5.95
2023-01-13T17:11:03.198Z,5.91
2023-01-13T17:13:32.962Z,5.94
2023-01-13T17:16:03.328Z,6.04
2023-01-13T17:18:34.665Z,6.02
2023-01-13T17:21:08.471Z,6.03
2023-01-13T17:23:40.360Z,6.10
2023-01-13T17:26:32.981Z,6.08
2023-01-13T17:29:10.759Z,6.08
2023-01-13T17:31:43.175Z,6.17
2023-01-13T17:34:14.483Z,6.14
2023-01-13T17:36:47.149Z,6.04
2023-01-13T17:39:23.312Z,6.10
2023-01-13T17:41:57.570Z,6.07
2023-01-13T17:44:30.275Z,6.04
2023-01-13T17:47:08.102Z,6.15
2023-01-13T17:49:45.119Z,6.17
2023-01-13T17:52:22.167Z,6.15
2023-01-13T17:54:55.257Z,6.15
2023-01-13T17:57:28.609Z,6.13
2023-01-13T18:00:00.704Z,6.07
2023-01-13T18:02:44.126Z,6.05
2023-01-13T18:05:21.626Z,6.04
2023-01-13T18:07:53.254Z,6.02
2023-01-13T18:10:23.374Z,6.00
2023-01-13T18:12:56.558Z,6.00
2023-01-13T18:15:30.172Z,5.98
2023-01-13T18:18:19.973Z,5.94
2023-01-13T18:21:16.601Z,5.84
2023-01-13T18:24:06.520Z,5.80
2023-01-13T18:26:55.812Z,5.83
2023-01-13T18:29:26.876Z,5.75
2023-01-13T18:31:56.964Z,5.70
2023-01-13T18:34:27.146Z,5.64
2023-01-13T18:37:01.278Z,5.70
2023-01-13T18:39:33.392Z,5.63
2023-01-13T18:42:22.434Z,5.59
2023-01-13T18:44:57.196Z,5.54
2023-01-13T18:47:28.929Z,5.64
2023-01-13T18:49:59.382Z,5.59
2023-01-13T18:52:30.589Z,5.57
2023-01-13T18:55:02.552Z,5.59
2023-01-13T18:57:35.344Z,5.56
2023-01-13T19:00:06.688Z,5.56
2023-01-13T19:02:38.898Z,5.58
2023-01-13T19:05:12.087Z,5.60
2023-01-13T19:07:51.705Z,5.57
2023-01-13T19:10:25.250Z,5.58
2023-01-13T19:12:57.372Z,5.58
2023-01-13T19:15:29.006Z,5.57
2023-01-13T19:18:00.183Z,5.48
2023-01-13T19:20:31.765Z,5.48
2023-01-13T19:23:05.381Z,5.43
2023-01-13T19:25:36.369Z,5.39
2023-01-13T19:28:06.457Z,5.48
2023-01-13T19:30:38.756Z,5.43
2023-01-13T19:33:09.122Z,5.39
2023-01-13T19:35:39.534Z,5.35
2023-01-13T19:38:13.213Z,5.27
2023-01-13T19:40:54.293Z,5.37
2023-01-13T19:43:46.065Z,5.36
2023-01-13T19:46:18.128Z,5.31
2023-01-13T19:48:53.359Z,5.29
2023-01-13T19:51:24.004Z,5.28
2023-01-13T19:53:56.056Z,5.25
2023-01-13T19:56:32.710Z,5.24
2023-01-13T19:59:08.376Z,5.22
2023-01-13T20:01:47.025Z,5.14
2023-01-13T20:04:29.202Z,5.16
2023-01-13T20:07:02.431Z,5.06
2023-01-13T20:09:37.533Z,5.06
2023-01-13T20:12:10.646Z,5.08
2023-01-13T20:14:45.915Z,5.12
2023-01-13T20:17:17.794Z,5.07
2023-01-13T20:19:50.253Z,5.08
2023-01-13T20:22:32.314Z,5.06
2023-01-13T20:25:04.906Z,5.01
2023-01-13T20:27:36.785Z,5.00
2023-01-13T20:30:09.779Z,4.96
2023-01-13T20:32:39.793Z,4.86
2023-01-13T20:35:11.325Z,4.76
2023-01-13T20:37:45.379Z,4.72
2023-01-13T20:40:19.634Z,4.74
2023-01-13T20:42:53.572Z,4.78
2023-01-13T20:45:26.286Z,4.74
2023-01-13T20:47:59.261Z,4.71
2023-01-13T20:50:29.236Z,4.71
2023-01-13T20:53:00.877Z,4.65
2023-01-13T20:55:33.614Z,4.62
2023-01-13T20:58:07.006Z,4.59
2023-01-13T21:00:39.488Z,4.60
2023-01-13T21:03:13.182Z,4.64
2023-01-13T21:05:46.657Z,4.55
2023-01-13T21:08:19.055Z,4.53
2023-01-13T21:10:54.291Z,4.59
2023-01-13T21:13:47.307Z,4.61
2023-01-13T21:16:20.638Z,4.61
2023-01-13T21:19:07.706Z,4.67
2023-01-13T21:21:41.256Z,4.63
2023-01-13T21:24:14.617Z,4.68
2023-01-13T21:26:45.545Z,4.71
2023-01-13T21:29:17.135Z,4.67
2023-01-13T21:31:47.113Z,4.58
2023-01-13T21:34:17.554Z,4.50
2023-01-13T21:36:48.321Z,4.49
2023-01-13T21:39:18.656Z,4.49
2023-01-13T21:42:05.328Z,4.51
2023-01-13T21:44:54.292Z,4.56
2023-01-13T21:47:42.485Z,4.49
2023-01-13T21:50:15.195Z,4.51
2023-01-13T21:52:51.151Z,4.57
2023-01-13T21:55:24.923Z,4.56
2023-01-13T21:57:55.451Z,4.61
2023-01-13T22:00:29.543Z,4.57
2023-01-13T22:03:00.536Z,4.63
2023-01-13T22:05:31.181Z,4.72
2023-01-13T22:08:01.519Z,4.74
2023-01-13T22:10:32.673Z,4.71
2023-01-13T22:13:23.904Z,4.77
2023-01-13T22:15:56.162Z,4.76
2023-01-13T22:18:27.031Z,4.76
2023-01-13T22:21:02.484Z,4.79
2023-01-13T22:23:32.868Z,4.81
2023-01-13T22:26:06.291Z,4.79
2023-01-13T22:28:41.006Z,4.87
2023-01-13T22:31:13.798Z,4.95
2023-01-13T22:33:45.820Z,4.95
2023-01-13T22:36:16.791Z,4.96
2023-01-13T22:38:46.612Z,5.01
2023-01-13T22:41:16.825Z,4.98
2023-01-13T22:43:46.768Z,4.97
2023-01-13T22:46:19.006Z,4.94
2023-01-13T22:48:52.165Z,4.88
2023-01-13T22:51:23.189Z,4.89
2023-01-13T22:53:53.077Z,4.89
2023-01-13T22:56:25.901Z,4.83
2023-01-13T22:58:58.432Z,4.92
2023-01-13T23:01:32.247Z,4.88
2023-01-13T23:04:03.385Z,4.94
2023-01-13T23:06:34.539Z,4.89
2023-01-13T23:09:07.793Z,4.79
2023-01-13T23:14:40.421Z,4.81
2023-01-13T23:17:12.108Z,4.84
2023-01-13T23:19:41.813Z,4.96
2023-01-13T23:22:13.404Z,4.94
2023-01-13T23:24:44.791Z,4.88
2023-01-13T23:27:14.912Z,4.88
2023-01-13T23:29:44.410Z,4.85
2023-01-13T23:32:16.001Z,4.84
2023-01-13T23:34:45.623Z,4.88
2023-01-13T23:37:15.735Z,4.92
2023-01-13T23:39:45.310Z,4.91
2023-01-13T23:42:15.349Z,4.93
2023-01-13T23:44:45.046Z,4.90
2023-01-13T23:47:16.686Z,4.92
2023-01-13T23:49:47.011Z,4.95
2023-01-13T23:52:18.356Z,4.97
2023-01-13T23:54:48.070Z,4.89
2023-01-13T23:57:18.419Z,4.59
2023-01-13T23:59:49.147Z,4.85
